sensor_id;sensor_type;location;lat;lon;timestamp;P1;durP1;ratioP1;P2;durP2;ratioP2
19221;SDS011;9745;50.828;4.378;2023-01-06T00:00:12;5.63;;;1.60;;
19221;SDS011;9745;50.828;4.378;2023-01-06T00:02:38;7.00;;;1.63;;
19221;SDS011;9745;50.828;4.378;2023-01-06T00:05:04;4.90;;;1.73;;
19221;SDS011;9745;50.828;4.378;2023-01-06T00:07:30;4.57;;;1.10;;
19221;SDS011;9745;50.828;4.378;2023-01-06T00:09:56;3.80;;;1.17;;
19221;SDS011;9745;50.828;4.378;2023-01-06T00:12:22;4.77;;;1.33;;
19221;SDS011;9745;50.828;4.378;2023-01-06T00:14:50;4.50;;;1.50;;
19221;SDS011;9745;50.828;4.378;2023-01-06T00:17:16;3.33;;;1.10;;
19221;SDS011;9745;50.828;4.378;2023-01-06T00:19:42;9.40;;;2.47;;
19221;SDS011;9745;50.828;4.378;2023-01-06T00:22:08;2.77;;;0.90;;
19221;SDS011;9745;50.828;4.378;2023-01-06T00:24:34;5.37;;;1.00;;
19221;SDS011;9745;50.828;4.378;2023-01-06T00:27:00;3.50;;;0.93;;
19221;SDS011;9745;50.828;4.378;2023-01-06T00:29:26;6.03;;;1.20;;
19221;SDS011;9745;50.828;4.378;2023-01-06T00:31:52;5.03;;;1.30;;
19221;SDS011;9745;50.828;4.378;2023-01-06T00:34:18;6.13;;;1.97;;
19221;SDS011;9745;50.828;4.378;2023-01-06T00:36:44;4.60;;;1.20;;
19221;SDS011;9745;50.828;4.378;2023-01-06T00:39:11;5.17;;;1.07;;
19221;SDS011;9745;50.828;4.378;2023-01-06T00:41:37;5.33;;;1.20;;
19221;SDS011;9745;50.828;4.378;2023-01-06T00:44:22;3.67;;;1.17;;
19221;SDS011;9745;50.828;4.378;2023-01-06T00:46:48;3.53;;;1.33;;
19221;SDS011;9745;50.828;4.378;2023-01-06T00:49:14;6.00;;;1.27;;
19221;SDS011;9745;50.828;4.378;2023-01-06T00:51:40;6.93;;;1.37;;
19221;SDS011;9745;50.828;4.378;2023-01-06T00:54:07;4.03;;;0.87;;
19221;SDS011;9745;50.828;4.378;2023-01-06T00:56:37;1.80;;;0.80;;
19221;SDS011;9745;50.828;4.378;2023-01-06T00:59:04;5.43;;;1.20;;
19221;SDS011;9745;50.828;4.378;2023-01-06T01:01:30;2.50;;;0.97;;
19221;SDS011;9745;50.828;4.378;2023-01-06T01:03:56;4.40;;;0.90;;
19221;SDS011;9745;50.828;4.378;2023-01-06T01:06:22;3.37;;;1.00;;
19221;SDS011;9745;50.828;4.378;2023-01-06T01:08:51;2.97;;;0.80;;
19221;SDS011;9745;50.828;4.378;2023-01-06T01:11:17;3.90;;;1.00;;
19221;SDS011;9745;50.828;4.378;2023-01-06T01:14:04;5.17;;;1.30;;
19221;SDS011;9745;50.828;4.378;2023-01-06T01:16:30;3.47;;;1.00;;
19221;SDS011;9745;50.828;4.378;2023-01-06T01:18:56;5.00;;;1.33;;
19221;SDS011;9745;50.828;4.378;2023-01-06T01:21:22;7.63;;;1.13;;
19221;SDS011;9745;50.828;4.378;2023-01-06T01:23:48;2.67;;;1.00;;
19221;SDS011;9745;50.828;4.378;2023-01-06T01:26:14;4.17;;;1.03;;
19221;SDS011;9745;50.828;4.378;2023-01-06T01:28:40;4.37;;;0.80;;
19221;SDS011;9745;50.828;4.378;2023-01-06T01:31:06;4.07;;;1.30;;
19221;SDS011;9745;50.828;4.378;2023-01-06T01:33:32;4.50;;;1.17;;
19221;SDS011;9745;50.828;4.378;2023-01-06T01:36:04;1.93;;;0.83;;
19221;SDS011;9745;50.828;4.378;2023-01-06T01:38:30;2.60;;;0.90;;
19221;SDS011;9745;50.828;4.378;2023-01-06T01:40:56;3.77;;;1.20;;
19221;SDS011;9745;50.828;4.378;2023-01-06T01:43:22;5.23;;;1.10;;
19221;SDS011;9745;50.828;4.378;2023-01-06T01:45:49;3.53;;;1.07;;
19221;SDS011;9745;50.828;4.378;2023-01-06T01:48:25;5.13;;;1.30;;
19221;SDS011;9745;50.828;4.378;2023-01-06T01:50:53;5.63;;;1.10;;
19221;SDS011;9745;50.828;4.378;2023-01-06T01:53:25;7.23;;;1.87;;
19221;SDS011;9745;50.828;4.378;2023-01-06T01:55:52;3.10;;;1.33;;
19221;SDS011;9745;50.828;4.378;2023-01-06T01:58:22;2.33;;;1.07;;
19221;SDS011;9745;50.828;4.378;2023-01-06T02:00:50;4.37;;;1.00;;
19221;SDS011;9745;50.828;4.378;2023-01-06T02:03:16;3.90;;;1.20;;
19221;SDS011;9745;50.828;4.378;2023-01-06T02:05:43;3.90;;;1.00;;
19221;SDS011;9745;50.828;4.378;2023-01-06T02:08:17;4.67;;;1.27;;
19221;SDS011;9745;50.828;4.378;2023-01-06T02:10:45;3.03;;;0.97;;
19221;SDS011;9745;50.828;4.378;2023-01-06T02:13:11;2.93;;;1.17;;
19221;SDS011;9745;50.828;4.378;2023-01-06T02:15:37;2.20;;;0.80;;
19221;SDS011;9745;50.828;4.378;2023-01-06T02:18:09;5.97;;;1.10;;
19221;SDS011;9745;50.828;4.378;2023-01-06T02:25:36;7.10;;;1.00;;
19221;SDS011;9745;50.828;4.378;2023-01-06T02:30:37;5.80;;;1.00;;
19221;SDS011;9745;50.828;4.378;2023-01-06T02:48:12;2.80;;;0.90;;
19221;SDS011;9745;50.828;4.378;2023-01-06T02:50:44;6.37;;;0.70;;
19221;SDS011;9745;50.828;4.378;2023-01-06T02:53:25;2.07;;;0.67;;
19221;SDS011;9745;50.828;4.378;2023-01-06T02:55:54;1.97;;;0.50;;
19221;SDS011;9745;50.828;4.378;2023-01-06T03:00:55;4.90;;;1.10;;
19221;SDS011;9745;50.828;4.378;2023-01-06T03:03:23;3.70;;;0.80;;
19221;SDS011;9745;50.828;4.378;2023-01-06T03:05:51;4.07;;;0.93;;
19221;SDS011;9745;50.828;4.378;2023-01-06T03:08:20;1.90;;;0.87;;
19221;SDS011;9745;50.828;4.378;2023-01-06T03:10:46;6.00;;;1.03;;
19221;SDS011;9745;50.828;4.378;2023-01-06T03:13:16;2.17;;;0.90;;
19221;SDS011;9745;50.828;4.378;2023-01-06T03:15:42;4.93;;;1.90;;
19221;SDS011;9745;50.828;4.378;2023-01-06T03:18:08;4.47;;;1.20;;
19221;SDS011;9745;50.828;4.378;2023-01-06T03:20:34;5.43;;;1.37;;
19221;SDS011;9745;50.828;4.378;2023-01-06T03:23:00;9.50;;;1.03;;
19221;SDS011;9745;50.828;4.378;2023-01-06T03:25:26;1.87;;;0.90;;
19221;SDS011;9745;50.828;4.378;2023-01-06T03:27:52;4.53;;;0.80;;
19221;SDS011;9745;50.828;4.378;2023-01-06T03:30:18;2.93;;;0.87;;
19221;SDS011;9745;50.828;4.378;2023-01-06T03:35:24;2.07;;;0.80;;
19221;SDS011;9745;50.828;4.378;2023-01-06T03:38:11;1.20;;;0.70;;
19221;SDS011;9745;50.828;4.378;2023-01-06T03:43:07;3.50;;;0.80;;
19221;SDS011;9745;50.828;4.378;2023-01-06T03:50:47;3.07;;;0.80;;
19221;SDS011;9745;50.828;4.378;2023-01-06T03:53:16;2.60;;;0.90;;
19221;SDS011;9745;50.828;4.378;2023-01-06T03:55:45;4.30;;;0.80;;
19221;SDS011;9745;50.828;4.378;2023-01-06T03:58:12;3.87;;;0.80;;
19221;SDS011;9745;50.828;4.378;2023-01-06T04:00:41;2.80;;;0.83;;
19221;SDS011;9745;50.828;4.378;2023-01-06T04:03:07;2.93;;;0.87;;
19221;SDS011;9745;50.828;4.378;2023-01-06T04:05:34;3.93;;;0.80;;
19221;SDS011;9745;50.828;4.378;2023-01-06T04:08:00;3.40;;;1.20;;
19221;SDS011;9745;50.828;4.378;2023-01-06T04:10:26;4.23;;;0.90;;
19221;SDS011;9745;50.828;4.378;2023-01-06T04:12:52;1.87;;;0.67;;
19221;SDS011;9745;50.828;4.378;2023-01-06T04:15:19;3.77;;;0.90;;
19221;SDS011;9745;50.828;4.378;2023-01-06T04:17:45;6.77;;;1.50;;
19221;SDS011;9745;50.828;4.378;2023-01-06T04:20:13;5.70;;;0.93;;
19221;SDS011;9745;50.828;4.378;2023-01-06T04:22:39;1.50;;;0.63;;
19221;SDS011;9745;50.828;4.378;2023-01-06T04:25:05;3.67;;;0.70;;
19221;SDS011;9745;50.828;4.378;2023-01-06T04:27:31;2.17;;;0.60;;
19221;SDS011;9745;50.828;4.378;2023-01-06T04:29:57;2.10;;;0.67;;
19221;SDS011;9745;50.828;4.378;2023-01-06T04:32:23;2.27;;;0.70;;
19221;SDS011;9745;50.828;4.378;2023-01-06T04:34:49;2.80;;;0.70;;
19221;SDS011;9745;50.828;4.378;2023-01-06T04:37:15;1.77;;;0.67;;
19221;SDS011;9745;50.828;4.378;2023-01-06T04:39:42;2.10;;;0.80;;
19221;SDS011;9745;50.828;4.378;2023-01-06T04:42:08;3.33;;;0.60;;
19221;SDS011;9745;50.828;4.378;2023-01-06T04:44:34;1.47;;;0.70;;
19221;SDS011;9745;50.828;4.378;2023-01-06T04:47:00;1.30;;;0.50;;
19221;SDS011;9745;50.828;4.378;2023-01-06T04:49:26;1.23;;;0.60;;
19221;SDS011;9745;50.828;4.378;2023-01-06T04:51:52;1.40;;;0.70;;
19221;SDS011;9745;50.828;4.378;2023-01-06T04:54:18;1.50;;;0.50;;
19221;SDS011;9745;50.828;4.378;2023-01-06T04:56:44;1.10;;;0.70;;
19221;SDS011;9745;50.828;4.378;2023-01-06T04:59:10;2.03;;;0.70;;
19221;SDS011;9745;50.828;4.378;2023-01-06T05:01:36;2.50;;;0.67;;
19221;SDS011;9745;50.828;4.378;2023-01-06T05:04:02;2.37;;;0.80;;
19221;SDS011;9745;50.828;4.378;2023-01-06T05:06:31;1.63;;;0.70;;
19221;SDS011;9745;50.828;4.378;2023-01-06T05:08:56;2.30;;;0.70;;
19221;SDS011;9745;50.828;4.378;2023-01-06T05:11:23;3.87;;;0.77;;
19221;SDS011;9745;50.828;4.378;2023-01-06T05:13:50;2.77;;;0.70;;
19221;SDS011;9745;50.828;4.378;2023-01-06T05:16:17;1.67;;;0.60;;
19221;SDS011;9745;50.828;4.378;2023-01-06T05:18:44;1.67;;;0.70;;
19221;SDS011;9745;50.828;4.378;2023-01-06T05:21:10;1.40;;;0.70;;
19221;SDS011;9745;50.828;4.378;2023-01-06T05:23:36;2.17;;;0.90;;
19221;SDS011;9745;50.828;4.378;2023-01-06T05:26:03;2.47;;;0.60;;
19221;SDS011;9745;50.828;4.378;2023-01-06T05:28:29;1.53;;;0.50;;
19221;SDS011;9745;50.828;4.378;2023-01-06T05:30:59;2.57;;;0.70;;
19221;SDS011;9745;50.828;4.378;2023-01-06T05:33:25;0.80;;;0.60;;
19221;SDS011;9745;50.828;4.378;2023-01-06T05:35:57;2.37;;;0.80;;
19221;SDS011;9745;50.828;4.378;2023-01-06T05:38:23;0.70;;;0.50;;
19221;SDS011;9745;50.828;4.378;2023-01-06T05:40:50;1.33;;;0.67;;
19221;SDS011;9745;50.828;4.378;2023-01-06T05:43:16;2.60;;;0.60;;
19221;SDS011;9745;50.828;4.378;2023-01-06T05:45:42;2.07;;;0.67;;
19221;SDS011;9745;50.828;4.378;2023-01-06T05:48:08;1.87;;;0.70;;
19221;SDS011;9745;50.828;4.378;2023-01-06T05:50:34;1.90;;;0.90;;
19221;SDS011;9745;50.828;4.378;2023-01-06T05:53:00;1.17;;;0.60;;
19221;SDS011;9745;50.828;4.378;2023-01-06T05:55:26;1.40;;;0.70;;
19221;SDS011;9745;50.828;4.378;2023-01-06T05:57:52;1.47;;;0.80;;
19221;SDS011;9745;50.828;4.378;2023-01-06T06:00:18;1.37;;;0.70;;
19221;SDS011;9745;50.828;4.378;2023-01-06T06:02:44;2.50;;;0.67;;
19221;SDS011;9745;50.828;4.378;2023-01-06T06:05:10;2.37;;;0.60;;
19221;SDS011;9745;50.828;4.378;2023-01-06T06:07:36;1.30;;;0.50;;
19221;SDS011;9745;50.828;4.378;2023-01-06T06:10:02;3.13;;;0.60;;
19221;SDS011;9745;50.828;4.378;2023-01-06T06:12:28;1.43;;;0.70;;
19221;SDS011;9745;50.828;4.378;2023-01-06T06:14:54;3.23;;;0.63;;
19221;SDS011;9745;50.828;4.378;2023-01-06T06:17:20;0.53;;;0.50;;
19221;SDS011;9745;50.828;4.378;2023-01-06T06:19:46;1.50;;;0.70;;
19221;SDS011;9745;50.828;4.378;2023-01-06T06:22:12;3.07;;;0.60;;
19221;SDS011;9745;50.828;4.378;2023-01-06T06:24:38;1.50;;;0.43;;
19221;SDS011;9745;50.828;4.378;2023-01-06T06:27:04;0.63;;;0.40;;
19221;SDS011;9745;50.828;4.378;2023-01-06T06:29:30;1.13;;;0.40;;
19221;SDS011;9745;50.828;4.378;2023-01-06T06:31:56;3.37;;;0.50;;
19221;SDS011;9745;50.828;4.378;2023-01-06T06:34:22;2.27;;;0.40;;
19221;SDS011;9745;50.828;4.378;2023-01-06T06:36:48;0.87;;;0.40;;
19221;SDS011;9745;50.828;4.378;2023-01-06T06:39:14;0.90;;;0.40;;
19221;SDS011;9745;50.828;4.378;2023-01-06T06:41:40;0.83;;;0.50;;
19221;SDS011;9745;50.828;4.378;2023-01-06T06:44:06;1.23;;;0.50;;
19221;SDS011;9745;50.828;4.378;2023-01-06T06:46:32;1.50;;;0.50;;
19221;SDS011;9745;50.828;4.378;2023-01-06T06:48:58;2.13;;;0.60;;
19221;SDS011;9745;50.828;4.378;2023-01-06T06:51:24;1.83;;;0.50;;
19221;SDS011;9745;50.828;4.378;2023-01-06T06:53:50;1.73;;;0.40;;
19221;SDS011;9745;50.828;4.378;2023-01-06T06:56:16;2.07;;;0.60;;
19221;SDS011;9745;50.828;4.378;2023-01-06T06:58:42;0.43;;;0.40;;
19221;SDS011;9745;50.828;4.378;2023-01-06T07:01:09;1.17;;;0.50;;
19221;SDS011;9745;50.828;4.378;2023-01-06T07:03:35;0.70;;;0.40;;
19221;SDS011;9745;50.828;4.378;2023-01-06T07:06:02;0.90;;;0.50;;
19221;SDS011;9745;50.828;4.378;2023-01-06T07:08:29;0.70;;;0.50;;
19221;SDS011;9745;50.828;4.378;2023-01-06T07:10:57;1.53;;;0.50;;
19221;SDS011;9745;50.828;4.378;2023-01-06T07:13:23;1.10;;;0.50;;
19221;SDS011;9745;50.828;4.378;2023-01-06T07:15:49;0.93;;;0.40;;
19221;SDS011;9745;50.828;4.378;2023-01-06T07:18:15;5.00;;;2.53;;
19221;SDS011;9745;50.828;4.378;2023-01-06T07:20:44;1.93;;;0.33;;
19221;SDS011;9745;50.828;4.378;2023-01-06T07:23:11;0.90;;;0.50;;
19221;SDS011;9745;50.828;4.378;2023-01-06T07:25:36;0.50;;;0.40;;
19221;SDS011;9745;50.828;4.378;2023-01-06T07:28:03;0.90;;;0.60;;
19221;SDS011;9745;50.828;4.378;2023-01-06T07:30:31;0.77;;;0.50;;
19221;SDS011;9745;50.828;4.378;2023-01-06T07:32:57;0.70;;;0.40;;
19221;SDS011;9745;50.828;4.378;2023-01-06T07:35:23;0.70;;;0.40;;
19221;SDS011;9745;50.828;4.378;2023-01-06T07:37:49;3.43;;;0.67;;
19221;SDS011;9745;50.828;4.378;2023-01-06T07:40:15;1.07;;;0.63;;
19221;SDS011;9745;50.828;4.378;2023-01-06T07:42:42;2.10;;;1.57;;
19221;SDS011;9745;50.828;4.378;2023-01-06T07:45:08;2.87;;;0.77;;
19221;SDS011;9745;50.828;4.378;2023-01-06T07:47:34;1.80;;;0.80;;
19221;SDS011;9745;50.828;4.378;2023-01-06T07:50:00;1.33;;;0.70;;
19221;SDS011;9745;50.828;4.378;2023-01-06T07:52:27;3.03;;;1.00;;
19221;SDS011;9745;50.828;4.378;2023-01-06T07:54:53;2.47;;;0.67;;
19221;SDS011;9745;50.828;4.378;2023-01-06T07:57:23;2.10;;;0.60;;
19221;SDS011;9745;50.828;4.378;2023-01-06T07:59:49;1.27;;;0.63;;
19221;SDS011;9745;50.828;4.378;2023-01-06T08:02:15;3.17;;;0.80;;
19221;SDS011;9745;50.828;4.378;2023-01-06T08:04:41;1.63;;;0.60;;
19221;SDS011;9745;50.828;4.378;2023-01-06T08:07:07;1.43;;;0.60;;
19221;SDS011;9745;50.828;4.378;2023-01-06T08:09:33;1.97;;;0.70;;
19221;SDS011;9745;50.828;4.378;2023-01-06T08:11:59;3.13;;;0.70;;
19221;SDS011;9745;50.828;4.378;2023-01-06T08:14:25;1.70;;;0.80;;
19221;SDS011;9745;50.828;4.378;2023-01-06T08:16:51;1.30;;;0.67;;
19221;SDS011;9745;50.828;4.378;2023-01-06T08:19:17;4.33;;;1.00;;
19221;SDS011;9745;50.828;4.378;2023-01-06T08:21:43;2.40;;;0.83;;
19221;SDS011;9745;50.828;4.378;2023-01-06T08:24:09;2.80;;;0.90;;
19221;SDS011;9745;50.828;4.378;2023-01-06T08:26:35;2.30;;;0.93;;
19221;SDS011;9745;50.828;4.378;2023-01-06T08:29:01;2.23;;;0.90;;
19221;SDS011;9745;50.828;4.378;2023-01-06T08:31:27;2.10;;;0.83;;
19221;SDS011;9745;50.828;4.378;2023-01-06T08:33:53;2.27;;;1.00;;
19221;SDS011;9745;50.828;4.378;2023-01-06T08:36:20;4.20;;;1.10;;
19221;SDS011;9745;50.828;4.378;2023-01-06T08:38:47;1.37;;;1.10;;
19221;SDS011;9745;50.828;4.378;2023-01-06T08:41:13;0.80;;;0.70;;
19221;SDS011;9745;50.828;4.378;2023-01-06T08:43:40;2.03;;;0.90;;
19221;SDS011;9745;50.828;4.378;2023-01-06T08:46:07;1.13;;;1.00;;
19221;SDS011;9745;50.828;4.378;2023-01-06T08:48:33;1.30;;;0.90;;
19221;SDS011;9745;50.828;4.378;2023-01-06T08:51:07;3.83;;;1.00;;
19221;SDS011;9745;50.828;4.378;2023-01-06T08:53:35;1.40;;;0.90;;
19221;SDS011;9745;50.828;4.378;2023-01-06T08:56:01;2.73;;;1.03;;
19221;SDS011;9745;50.828;4.378;2023-01-06T08:58:26;2.20;;;0.90;;
19221;SDS011;9745;50.828;4.378;2023-01-06T09:00:52;7.30;;;1.00;;
19221;SDS011;9745;50.828;4.378;2023-01-06T09:03:19;0.90;;;0.80;;
19221;SDS011;9745;50.828;4.378;2023-01-06T09:05:54;2.33;;;1.10;;
19221;SDS011;9745;50.828;4.378;2023-01-06T09:08:21;1.20;;;0.90;;
19221;SDS011;9745;50.828;4.378;2023-01-06T09:10:47;2.83;;;1.23;;
19221;SDS011;9745;50.828;4.378;2023-01-06T09:13:13;1.63;;;1.10;;
19221;SDS011;9745;50.828;4.378;2023-01-06T09:15:40;2.77;;;1.37;;
19221;SDS011;9745;50.828;4.378;2023-01-06T09:18:06;1.27;;;1.10;;
19221;SDS011;9745;50.828;4.378;2023-01-06T09:20:35;2.97;;;1.33;;
19221;SDS011;9745;50.828;4.378;2023-01-06T09:23:01;3.47;;;1.50;;
19221;SDS011;9745;50.828;4.378;2023-01-06T09:25:27;4.63;;;1.50;;
19221;SDS011;9745;50.828;4.378;2023-01-06T09:27:53;3.43;;;2.37;;
19221;SDS011;9745;50.828;4.378;2023-01-06T09:30:19;2.97;;;1.67;;
19221;SDS011;9745;50.828;4.378;2023-01-06T09:32:45;3.33;;;1.50;;
19221;SDS011;9745;50.828;4.378;2023-01-06T09:35:12;2.53;;;1.30;;
19221;SDS011;9745;50.828;4.378;2023-01-06T09:37:38;2.30;;;1.67;;
19221;SDS011;9745;50.828;4.378;2023-01-06T09:40:04;3.83;;;1.30;;
19221;SDS011;9745;50.828;4.378;2023-01-06T09:45:14;2.30;;;1.47;;
19221;SDS011;9745;50.828;4.378;2023-01-06T09:47:43;1.87;;;1.50;;
19221;SDS011;9745;50.828;4.378;2023-01-06T09:50:22;1.13;;;1.03;;
19221;SDS011;9745;50.828;4.378;2023-01-06T09:52:53;3.50;;;1.30;;
19221;SDS011;9745;50.828;4.378;2023-01-06T09:55:26;3.30;;;1.47;;
19221;SDS011;9745;50.828;4.378;2023-01-06T09:57:59;1.63;;;1.30;;
19221;SDS011;9745;50.828;4.378;2023-01-06T10:00:40;2.07;;;1.30;;
19221;SDS011;9745;50.828;4.378;2023-01-06T10:03:19;2.67;;;1.57;;
19221;SDS011;9745;50.828;4.378;2023-01-06T10:13:56;1.90;;;1.20;;
19221;SDS011;9745;50.828;4.378;2023-01-06T10:16:40;4.20;;;1.10;;
19221;SDS011;9745;50.828;4.378;2023-01-06T10:24:37;4.73;;;1.10;;
19221;SDS011;9745;50.828;4.378;2023-01-06T10:27:12;3.03;;;1.07;;
19221;SDS011;9745;50.828;4.378;2023-01-06T10:29:39;4.87;;;1.30;;
19221;SDS011;9745;50.828;4.378;2023-01-06T10:32:07;2.70;;;1.30;;
19221;SDS011;9745;50.828;4.378;2023-01-06T10:34:38;1.93;;;1.33;;
19221;SDS011;9745;50.828;4.378;2023-01-06T10:37:22;1.17;;;1.00;;
19221;SDS011;9745;50.828;4.378;2023-01-06T10:39:52;1.33;;;1.20;;
19221;SDS011;9745;50.828;4.378;2023-01-06T10:42:24;1.93;;;1.30;;
19221;SDS011;9745;50.828;4.378;2023-01-06T10:45:11;3.67;;;0.90;;
19221;SDS011;9745;50.828;4.378;2023-01-06T10:47:37;1.53;;;1.27;;
19221;SDS011;9745;50.828;4.378;2023-01-06T10:50:04;1.53;;;1.00;;
19221;SDS011;9745;50.828;4.378;2023-01-06T10:52:30;1.10;;;1.00;;
19221;SDS011;9745;50.828;4.378;2023-01-06T10:54:58;3.50;;;1.40;;
19221;SDS011;9745;50.828;4.378;2023-01-06T10:57:28;2.37;;;0.90;;
19221;SDS011;9745;50.828;4.378;2023-01-06T11:02:36;3.50;;;1.00;;
19221;SDS011;9745;50.828;4.378;2023-01-06T11:05:11;1.37;;;0.80;;
19221;SDS011;9745;50.828;4.378;2023-01-06T11:07:37;1.10;;;0.83;;
19221;SDS011;9745;50.828;4.378;2023-01-06T11:13:02;1.93;;;1.00;;
19221;SDS011;9745;50.828;4.378;2023-01-06T11:15:37;2.07;;;1.33;;
19221;SDS011;9745;50.828;4.378;2023-01-06T11:18:04;2.00;;;1.60;;
19221;SDS011;9745;50.828;4.378;2023-01-06T11:20:31;1.70;;;1.20;;
19221;SDS011;9745;50.828;4.378;2023-01-06T11:25:42;1.63;;;1.20;;
19221;SDS011;9745;50.828;4.378;2023-01-06T11:28:10;1.10;;;1.00;;
19221;SDS011;9745;50.828;4.378;2023-01-06T11:30:59;2.03;;;1.40;;
19221;SDS011;9745;50.828;4.378;2023-01-06T11:33:25;2.00;;;1.40;;
19221;SDS011;9745;50.828;4.378;2023-01-06T11:35:51;1.40;;;1.30;;
19221;SDS011;9745;50.828;4.378;2023-01-06T11:38:18;3.70;;;1.40;;
19221;SDS011;9745;50.828;4.378;2023-01-06T11:40:45;2.67;;;1.70;;
19221;SDS011;9745;50.828;4.378;2023-01-06T11:43:12;1.87;;;1.33;;
19221;SDS011;9745;50.828;4.378;2023-01-06T11:45:41;3.27;;;1.80;;
19221;SDS011;9745;50.828;4.378;2023-01-06T11:48:15;2.90;;;1.60;;
19221;SDS011;9745;50.828;4.378;2023-01-06T11:50:58;1.90;;;1.37;;
19221;SDS011;9745;50.828;4.378;2023-01-06T11:53:25;2.93;;;1.70;;
19221;SDS011;9745;50.828;4.378;2023-01-06T11:55:58;1.83;;;1.20;;
19221;SDS011;9745;50.828;4.378;2023-01-06T11:59:11;2.10;;;1.17;;
19221;SDS011;9745;50.828;4.378;2023-01-06T12:03:44;2.17;;;1.53;;
19221;SDS011;9745;50.828;4.378;2023-01-06T12:08:57;1.40;;;1.10;;
19221;SDS011;9745;50.828;4.378;2023-01-06T12:11:42;1.47;;;1.20;;
19221;SDS011;9745;50.828;4.378;2023-01-06T12:14:11;2.60;;;1.40;;
19221;SDS011;9745;50.828;4.378;2023-01-06T12:20:05;1.83;;;1.30;;
19221;SDS011;9745;50.828;4.378;2023-01-06T12:22:20;2.97;;;1.60;;
19221;SDS011;9745;50.828;4.378;2023-01-06T12:24:47;3.87;;;1.70;;
19221;SDS011;9745;50.828;4.378;2023-01-06T12:27:14;2.70;;;1.83;;
19221;SDS011;9745;50.828;4.378;2023-01-06T12:29:45;1.87;;;1.70;;
19221;SDS011;9745;50.828;4.378;2023-01-06T12:32:18;1.53;;;1.37;;
19221;SDS011;9745;50.828;4.378;2023-01-06T12:34:46;2.73;;;1.73;;
19221;SDS011;9745;50.828;4.378;2023-01-06T12:40:15;3.73;;;1.50;;
19221;SDS011;9745;50.828;4.378;2023-01-06T12:45:16;2.10;;;1.70;;
19221;SDS011;9745;50.828;4.378;2023-01-06T12:47:47;6.30;;;2.40;;
19221;SDS011;9745;50.828;4.378;2023-01-06T12:50:16;4.93;;;2.23;;
19221;SDS011;9745;50.828;4.378;2023-01-06T12:52:46;4.70;;;2.60;;
19221;SDS011;9745;50.828;4.378;2023-01-06T12:55:15;3.60;;;2.03;;
19221;SDS011;9745;50.828;4.378;2023-01-06T12:57:48;2.73;;;1.90;;
19221;SDS011;9745;50.828;4.378;2023-01-06T13:05:48;4.23;;;1.60;;
19221;SDS011;9745;50.828;4.378;2023-01-06T13:10:43;3.53;;;1.40;;
19221;SDS011;9745;50.828;4.378;2023-01-06T13:15:56;3.43;;;1.60;;
19221;SDS011;9745;50.828;4.378;2023-01-06T13:18:27;3.30;;;1.40;;
19221;SDS011;9745;50.828;4.378;2023-01-06T13:20:58;2.33;;;1.73;;
19221;SDS011;9745;50.828;4.378;2023-01-06T13:26:20;2.30;;;1.30;;
19221;SDS011;9745;50.828;4.378;2023-01-06T13:36:47;8.80;;;1.97;;
19221;SDS011;9745;50.828;4.378;2023-01-06T13:39:19;1.90;;;1.20;;
19221;SDS011;9745;50.828;4.378;2023-01-06T13:41:47;7.00;;;1.50;;
19221;SDS011;9745;50.828;4.378;2023-01-06T13:44:15;5.40;;;2.23;;
19221;SDS011;9745;50.828;4.378;2023-01-06T13:46:43;14.33;;;1.93;;
19221;SDS011;9745;50.828;4.378;2023-01-06T13:49:10;2.10;;;1.40;;
19221;SDS011;9745;50.828;4.378;2023-01-06T13:51:38;3.30;;;1.40;;
19221;SDS011;9745;50.828;4.378;2023-01-06T13:54:04;3.80;;;1.40;;
19221;SDS011;9745;50.828;4.378;2023-01-06T13:56:31;1.57;;;1.10;;
19221;SDS011;9745;50.828;4.378;2023-01-06T13:59:17;2.80;;;1.50;;
19221;SDS011;9745;50.828;4.378;2023-01-06T14:01:43;2.00;;;1.30;;
19221;SDS011;9745;50.828;4.378;2023-01-06T14:06:54;1.90;;;1.30;;
19221;SDS011;9745;50.828;4.378;2023-01-06T14:09:20;4.00;;;1.40;;
19221;SDS011;9745;50.828;4.378;2023-01-06T14:11:46;3.80;;;1.80;;
19221;SDS011;9745;50.828;4.378;2023-01-06T14:14:19;2.23;;;1.50;;
19221;SDS011;9745;50.828;4.378;2023-01-06T14:16:51;3.93;;;1.30;;
19221;SDS011;9745;50.828;4.378;2023-01-06T14:21:48;5.40;;;1.80;;
19221;SDS011;9745;50.828;4.378;2023-01-06T14:31:58;2.30;;;1.67;;
19221;SDS011;9745;50.828;4.378;2023-01-06T14:34:24;5.63;;;2.87;;
19221;SDS011;9745;50.828;4.378;2023-01-06T14:36:50;3.47;;;1.23;;
19221;SDS011;9745;50.828;4.378;2023-01-06T14:39:17;5.80;;;1.60;;
19221;SDS011;9745;50.828;4.378;2023-01-06T14:41:47;4.37;;;1.20;;
19221;SDS011;9745;50.828;4.378;2023-01-06T14:44:16;5.10;;;3.00;;
19221;SDS011;9745;50.828;4.378;2023-01-06T14:46:52;3.77;;;1.70;;
19221;SDS011;9745;50.828;4.378;2023-01-06T14:49:24;4.37;;;2.50;;
19221;SDS011;9745;50.828;4.378;2023-01-06T14:51:52;4.83;;;2.00;;
19221;SDS011;9745;50.828;4.378;2023-01-06T14:54:24;2.80;;;2.30;;
19221;SDS011;9745;50.828;4.378;2023-01-06T14:56:52;4.20;;;1.73;;
19221;SDS011;9745;50.828;4.378;2023-01-06T14:59:18;4.33;;;2.00;;
19221;SDS011;9745;50.828;4.378;2023-01-06T15:01:53;2.57;;;1.60;;
19221;SDS011;9745;50.828;4.378;2023-01-06T15:04:21;3.43;;;1.50;;
19221;SDS011;9745;50.828;4.378;2023-01-06T15:06:55;2.33;;;1.53;;
19221;SDS011;9745;50.828;4.378;2023-01-06T15:09:21;3.07;;;1.70;;
19221;SDS011;9745;50.828;4.378;2023-01-06T15:11:47;2.17;;;1.30;;
19221;SDS011;9745;50.828;4.378;2023-01-06T15:14:23;2.67;;;1.80;;
19221;SDS011;9745;50.828;4.378;2023-01-06T15:16:49;3.33;;;1.40;;
19221;SDS011;9745;50.828;4.378;2023-01-06T15:19:15;2.27;;;1.30;;
19221;SDS011;9745;50.828;4.378;2023-01-06T15:21:44;1.93;;;1.40;;
19221;SDS011;9745;50.828;4.378;2023-01-06T15:24:21;1.30;;;1.10;;
19221;SDS011;9745;50.828;4.378;2023-01-06T15:26:51;2.07;;;1.40;;
19221;SDS011;9745;50.828;4.378;2023-01-06T15:29:21;1.93;;;1.07;;
19221;SDS011;9745;50.828;4.378;2023-01-06T15:31:48;2.00;;;1.30;;
19221;SDS011;9745;50.828;4.378;2023-01-06T15:34:18;1.97;;;1.10;;
19221;SDS011;9745;50.828;4.378;2023-01-06T15:36:45;2.70;;;1.30;;
19221;SDS011;9745;50.828;4.378;2023-01-06T15:39:13;2.57;;;1.40;;
19221;SDS011;9745;50.828;4.378;2023-01-06T15:41:39;1.80;;;1.10;;
19221;SDS011;9745;50.828;4.378;2023-01-06T15:46:44;3.77;;;1.60;;
19221;SDS011;9745;50.828;4.378;2023-01-06T15:49:14;2.30;;;1.47;;
19221;SDS011;9745;50.828;4.378;2023-01-06T15:51:49;2.90;;;1.40;;
19221;SDS011;9745;50.828;4.378;2023-01-06T15:54:16;1.80;;;1.13;;
19221;SDS011;9745;50.828;4.378;2023-01-06T15:56:42;2.20;;;1.27;;
19221;SDS011;9745;50.828;4.378;2023-01-06T15:59:09;3.53;;;1.40;;
19221;SDS011;9745;50.828;4.378;2023-01-06T16:01:38;6.27;;;3.63;;
19221;SDS011;9745;50.828;4.378;2023-01-06T16:04:12;2.93;;;1.13;;
19221;SDS011;9745;50.828;4.378;2023-01-06T16:06:39;3.33;;;1.57;;
19221;SDS011;9745;50.828;4.378;2023-01-06T16:09:16;2.40;;;1.27;;
19221;SDS011;9745;50.828;4.378;2023-01-06T16:12:03;2.00;;;1.23;;
19221;SDS011;9745;50.828;4.378;2023-01-06T16:14:34;3.23;;;1.87;;
19221;SDS011;9745;50.828;4.378;2023-01-06T16:19:28;2.67;;;2.30;;
19221;SDS011;9745;50.828;4.378;2023-01-06T16:21:54;4.93;;;1.47;;
19221;SDS011;9745;50.828;4.378;2023-01-06T16:24:24;2.30;;;1.50;;
19221;SDS011;9745;50.828;4.378;2023-01-06T16:26:52;3.43;;;2.10;;
19221;SDS011;9745;50.828;4.378;2023-01-06T16:29:29;2.60;;;1.97;;
19221;SDS011;9745;50.828;4.378;2023-01-06T16:31:58;3.57;;;2.53;;
19221;SDS011;9745;50.828;4.378;2023-01-06T16:34:25;3.17;;;2.23;;
19221;SDS011;9745;50.828;4.378;2023-01-06T16:36:58;3.13;;;2.27;;
19221;SDS011;9745;50.828;4.378;2023-01-06T16:39:25;3.50;;;2.07;;
19221;SDS011;9745;50.828;4.378;2023-01-06T16:44:27;3.67;;;2.20;;
19221;SDS011;9745;50.828;4.378;2023-01-06T16:46:58;2.37;;;1.77;;
19221;SDS011;9745;50.828;4.378;2023-01-06T16:49:24;3.27;;;2.10;;
19221;SDS011;9745;50.828;4.378;2023-01-06T16:51:50;3.33;;;2.90;;
19221;SDS011;9745;50.828;4.378;2023-01-06T16:54:17;7.27;;;2.50;;
19221;SDS011;9745;50.828;4.378;2023-01-06T16:56:44;3.97;;;2.60;;
19221;SDS011;9745;50.828;4.378;2023-01-06T16:59:11;4.17;;;2.37;;
19221;SDS011;9745;50.828;4.378;2023-01-06T17:01:37;4.53;;;2.40;;